createdAt,value
2023-01-04T00:01:34.116Z,5.21
2023-01-04T00:04:03.545Z,5.22
2023-01-04T00:06:31.609Z,5.20
2023-01-04T00:08:59.547Z,5.13
2023-01-04T00:11:27.592Z,5.19
2023-01-04T00:13:58.631Z,4.87
2023-01-04T00:16:29.008Z,4.68
2023-01-04T00:18:57.720Z,4.81
2023-01-04T00:21:28.923Z,4.74
2023-01-04T00:23:58.728Z,4.94
2023-01-04T00:26:28.537Z,4.85
2023-01-04T00:28:58.162Z,4.98
2023-01-04T00:31:26.852Z,4.62
2023-01-04T00:33:55.495Z,4.53
2023-01-04T00:36:23.843Z,4.51
2023-01-04T00:39:07.988Z,4.46
2023-01-04T00:41:57.955Z,4.66
2023-01-04T00:44:26.213Z,4.81
2023-01-04T00:46:54.461Z,4.91
2023-01-04T00:49:22.555Z,5.05
2023-01-04T00:51:50.629Z,5.11
2023-01-04T00:54:20.414Z,5.14
2023-01-04T00:56:48.810Z,5.07
2023-01-04T00:59:18.964Z,5.02
2023-01-04T01:01:47.094Z,5.12
2023-01-04T01:04:17.770Z,5.09
2023-01-04T01:06:45.818Z,4.97
2023-01-04T01:09:14.293Z,5.12
2023-01-04T01:11:44.244Z,5.14
2023-01-04T01:14:17.742Z,4.99
2023-01-04T01:16:54.917Z,5.19
2023-01-04T01:19:24.149Z,5.23
2023-01-04T01:21:52.089Z,5.31
2023-01-04T01:24:20.787Z,5.21
2023-01-04T01:26:50.405Z,5.21
2023-01-04T01:29:18.448Z,5.14
2023-01-04T01:31:46.443Z,5.16
2023-01-04T01:34:14.847Z,5.09
2023-01-04T01:36:42.946Z,5.12
2023-01-04T01:39:10.911Z,5.23
2023-01-04T01:41:39.094Z,5.14
2023-01-04T01:44:46.888Z,5.26
2023-01-04T01:47:16.645Z,5.32
2023-01-04T01:49:47.802Z,5.34
2023-01-04T01:52:19.318Z,5.32
2023-01-04T01:54:51.048Z,5.20
2023-01-04T01:57:23.890Z,5.20
2023-01-04T01:59:57.252Z,5.17
2023-01-04T02:02:25.452Z,5.23
2023-01-04T02:04:53.587Z,5.28
2023-01-04T02:07:26.083Z,5.33
2023-01-04T02:09:55.319Z,4.91
2023-01-04T02:12:23.256Z,4.00
2023-01-04T02:14:53.950Z,4.30
2023-01-04T02:17:33.847Z,4.61
2023-01-04T02:20:23.316Z,4.74
2023-01-04T02:23:22.514Z,4.82
2023-01-04T02:26:29.217Z,4.82
2023-01-04T02:29:19.078Z,4.85
2023-01-04T02:31:52.804Z,4.83
2023-01-04T02:34:30.738Z,4.77
2023-01-04T02:37:01.678Z,4.71
2023-01-04T02:39:39.266Z,4.76
2023-01-04T02:42:15.397Z,4.58
2023-01-04T02:44:53.991Z,4.57
2023-01-04T02:47:41.499Z,4.34
2023-01-04T02:50:32.317Z,4.46
2023-01-04T02:53:02.424Z,4.54
2023-01-04T02:55:40.872Z,4.65
2023-01-04T02:58:20.351Z,4.70
2023-01-04T03:01:16.378Z,4.60
2023-01-04T03:04:09.982Z,4.72
2023-01-04T03:06:48.898Z,4.70
2023-01-04T03:09:21.496Z,4.66
2023-01-04T03:12:15.285Z,4.72
2023-01-04T03:14:49.911Z,4.74
2023-01-04T03:17:22.459Z,4.72
2023-01-04T03:19:55.545Z,4.58
2023-01-04T03:22:48.488Z,4.58
2023-01-04T03:25:38.358Z,4.45
2023-01-04T03:28:26.483Z,4.27
2023-01-04T03:31:18.145Z,4.02
2023-01-04T03:34:04.007Z,4.28
2023-01-04T03:36:45.424Z,4.46
2023-01-04T03:39:39.357Z,4.39
2023-01-04T03:42:32.541Z,4.55
2023-01-04T03:45:30.045Z,4.58
2023-01-04T03:48:23.802Z,4.56
2023-01-04T03:50:56.311Z,4.32
2023-01-04T03:53:27.124Z,4.61
2023-01-04T03:55:57.839Z,4.55
2023-01-04T03:58:26.458Z,4.52
2023-01-04T04:00:54.714Z,4.57
2023-01-04T04:03:22.701Z,4.61
2023-01-04T04:06:08.211Z,4.60
2023-01-04T04:08:37.524Z,4.65
2023-01-04T04:11:19.563Z,4.67
2023-01-04T04:13:47.527Z,4.73
2023-01-04T04:16:15.511Z,4.75
2023-01-04T04:18:43.617Z,4.93
2023-01-04T04:21:11.593Z,4.95
2023-01-04T04:23:41.261Z,4.79
2023-01-04T04:26:09.381Z,4.60
2023-01-04T04:28:37.353Z,4.38
2023-01-04T04:31:05.562Z,4.73
2023-01-04T04:33:33.478Z,4.82
2023-01-04T04:36:01.389Z,4.95
2023-01-04T04:38:29.331Z,5.05
2023-01-04T04:41:15.547Z,4.96
2023-01-04T04:43:43.568Z,5.02
2023-01-04T04:46:11.627Z,5.15
2023-01-04T04:48:39.620Z,5.28
2023-01-04T04:51:07.558Z,5.42
2023-01-04T04:53:35.561Z,5.52
2023-01-04T04:56:05.074Z,5.45
2023-01-04T04:58:32.994Z,5.47
2023-01-04T05:01:00.958Z,5.50
2023-01-04T05:03:28.939Z,5.49
2023-01-04T05:05:56.877Z,5.41
2023-01-04T05:08:25.005Z,5.62
2023-01-04T05:10:52.962Z,5.76
2023-01-04T05:13:21.312Z,5.82
2023-01-04T05:15:50.627Z,5.91
2023-01-04T05:18:20.135Z,5.96
2023-01-04T05:20:48.706Z,6.03
2023-01-04T05:23:17.966Z,5.97
2023-01-04T05:25:45.903Z,6.05
2023-01-04T05:28:13.875Z,6.06
2023-01-04T05:30:51.258Z,6.10
2023-01-04T05:33:20.233Z,6.11
2023-01-04T05:35:48.158Z,6.17
2023-01-04T05:38:16.563Z,6.20
2023-01-04T05:40:44.814Z,6.19
2023-01-04T05:43:13.882Z,6.18
2023-01-04T05:45:45.491Z,6.04
2023-01-04T05:48:13.455Z,6.03
2023-01-04T05:50:41.423Z,6.02
2023-01-04T05:53:09.428Z,5.95
2023-01-04T05:55:37.386Z,6.02
2023-01-04T05:58:05.764Z,6.09
2023-01-04T06:00:33.696Z,6.23
2023-01-04T06:03:03.236Z,6.16
2023-01-04T06:05:31.312Z,6.25
2023-01-04T06:07:59.274Z,6.15
2023-01-04T06:10:27.196Z,6.09
2023-01-04T06:12:55.170Z,5.95
2023-01-04T06:15:23.112Z,5.96
2023-01-04T06:17:51.114Z,6.01
2023-01-04T06:20:20.644Z,5.80
2023-01-04T06:22:48.585Z,5.79
2023-01-04T06:25:17.418Z,5.94
2023-01-04T06:27:45.384Z,6.01
2023-01-04T06:30:13.486Z,6.02
2023-01-04T06:32:41.486Z,6.07
2023-01-04T06:35:09.809Z,6.03
2023-01-04T06:37:39.126Z,5.95
2023-01-04T06:40:08.575Z,5.97
2023-01-04T06:42:45.677Z,6.00
2023-01-04T06:45:13.813Z,6.02
2023-01-04T06:47:43.700Z,5.87
2023-01-04T06:50:12.547Z,5.99
2023-01-04T06:52:43.152Z,6.13
2023-01-04T06:55:11.408Z,6.16
2023-01-04T06:57:39.350Z,6.39
2023-01-04T07:00:09.226Z,6.51
2023-01-04T07:02:37.899Z,6.48
2023-01-04T07:05:06.696Z,6.59
2023-01-04T07:07:35.650Z,6.74
2023-01-04T07:10:09.824Z,6.66
2023-01-04T07:12:39.193Z,6.65
2023-01-04T07:15:38.952Z,6.55
2023-01-04T07:17:56.373Z,6.57
2023-01-04T07:20:24.521Z,6.72
2023-01-04T07:22:52.548Z,6.76
2023-01-04T07:25:22.063Z,6.83
2023-01-04T07:27:53.241Z,6.81
2023-01-04T07:30:21.876Z,6.83
2023-01-04T07:32:49.906Z,6.73
2023-01-04T07:35:17.938Z,6.77
2023-01-04T07:37:45.912Z,6.82
2023-01-04T07:40:13.939Z,6.84
2023-01-04T07:42:43.290Z,6.87
2023-01-04T07:45:11.804Z,6.96
2023-01-04T07:47:39.739Z,7.12
2023-01-04T07:50:08.455Z,7.16
2023-01-04T07:52:36.414Z,7.22
2023-01-04T07:55:04.336Z,7.33
2023-01-04T07:57:32.254Z,7.37
2023-01-04T08:00:01.542Z,7.45
2023-01-04T08:02:29.532Z,7.40
2023-01-04T08:04:57.649Z,7.34
2023-01-04T08:07:25.640Z,7.31
2023-01-04T08:09:53.584Z,7.61
2023-01-04T08:12:21.503Z,7.76
2023-01-04T08:14:49.756Z,7.83
2023-01-04T08:17:19.074Z,7.66
2023-01-04T08:19:47.628Z,7.71
2023-01-04T08:22:15.739Z,7.66
2023-01-04T08:24:43.888Z,7.67
2023-01-04T08:27:12.194Z,7.66
2023-01-04T08:29:40.181Z,7.77
2023-01-04T08:32:08.112Z,7.85
2023-01-04T08:34:37.445Z,7.71
2023-01-04T08:37:05.367Z,7.57
2023-01-04T08:39:36.187Z,7.67
2023-01-04T08:42:18.064Z,7.70
2023-01-04T08:44:48.642Z,7.60
2023-01-04T08:47:16.596Z,7.54
2023-01-04T08:49:45.931Z,7.43
2023-01-04T08:52:15.931Z,7.43
2023-01-04T08:54:43.891Z,7.42
2023-01-04T08:57:11.813Z,7.42
2023-01-04T08:59:39.780Z,7.57
2023-01-04T09:02:20.994Z,7.64
2023-01-04T09:04:50.584Z,7.73
2023-01-04T09:07:18.987Z,7.82
2023-01-04T09:09:46.909Z,7.91
2023-01-04T09:12:14.949Z,7.77
2023-01-04T09:14:42.964Z,8.01
2023-01-04T09:17:10.916Z,7.89
2023-01-04T09:19:38.873Z,8.04
2023-01-04T09:22:08.320Z,8.18
2023-01-04T09:24:36.526Z,8.33
2023-01-04T09:27:04.791Z,8.46
2023-01-04T09:29:32.741Z,8.36
2023-01-04T09:32:00.714Z,8.46
2023-01-04T09:34:28.922Z,8.53
2023-01-04T09:36:56.916Z,8.41
2023-01-04T09:39:30.439Z,8.40
2023-01-04T09:42:00.162Z,8.50
2023-01-04T09:47:37.848Z,8.51
2023-01-04T09:50:12.251Z,8.61
2023-01-04T09:52:48.891Z,8.60
2023-01-04T09:55:39.534Z,8.70
2023-01-04T09:58:26.013Z,8.64
2023-01-04T10:01:01.054Z,8.70
2023-01-04T10:03:32.437Z,8.75
2023-01-04T10:06:01.561Z,8.64
2023-01-04T10:08:31.521Z,8.79
2023-01-04T10:11:11.961Z,8.62
2023-01-04T10:13:53.133Z,8.69
2023-01-04T10:17:10.413Z,8.66
2023-01-04T10:22:31.096Z,8.52
2023-01-04T10:25:14.372Z,8.57
2023-01-04T10:27:53.173Z,8.54
2023-01-04T10:30:30.387Z,8.49
2023-01-04T10:33:11.823Z,8.55
2023-01-04T10:35:43.559Z,8.60
2023-01-04T10:38:18.029Z,8.75
2023-01-04T10:40:48.164Z,8.76
2023-01-04T10:43:28.936Z,8.68
2023-01-04T10:46:03.534Z,8.65
2023-01-04T10:48:42.753Z,8.64
2023-01-04T10:51:13.898Z,8.79
2023-01-04T10:53:45.787Z,8.86
2023-01-04T10:56:24.058Z,8.78
2023-01-04T10:59:03.208Z,8.59
2023-01-04T11:01:36.496Z,8.64
2023-01-04T11:04:10.458Z,8.76
2023-01-04T11:06:43.769Z,8.78
2023-01-04T11:09:24.506Z,8.84
2023-01-04T11:11:56.288Z,8.86
2023-01-04T11:14:27.694Z,8.93
2023-01-04T11:17:02.706Z,8.98
2023-01-04T11:19:31.242Z,9.04
2023-01-04T11:22:03.238Z,9.04
2023-01-04T11:24:33.866Z,9.11
2023-01-04T11:27:06.803Z,9.21
2023-01-04T11:29:42.861Z,8.93
2023-01-04T11:32:20.732Z,8.56
2023-01-04T11:34:52.133Z,8.46
2023-01-04T11:37:34.723Z,8.61
2023-01-04T11:40:18.978Z,8.68
2023-01-04T11:42:48.364Z,8.60
2023-01-04T11:45:29.093Z,8.25
2023-01-04T11:47:58.383Z,8.67
2023-01-04T11:50:41.285Z,8.64
2023-01-04T11:53:35.342Z,8.65
2023-01-04T11:56:13.747Z,8.40
2023-01-04T11:58:42.227Z,8.26
2023-01-04T12:01:21.537Z,8.14
2023-01-04T12:03:49.582Z,8.13
2023-01-04T12:06:20.377Z,8.25
2023-01-04T12:08:48.563Z,8.26
2023-01-04T12:11:24.237Z,8.25
2023-01-04T12:13:52.778Z,8.22
2023-01-04T12:16:29.608Z,8.18
2023-01-04T12:18:57.767Z,8.27
2023-01-04T12:21:27.727Z,8.24
2023-01-04T12:23:56.773Z,8.04
2023-01-04T12:26:25.016Z,8.19
2023-01-04T12:29:13.919Z,8.23
2023-01-04T12:31:43.294Z,8.32
2023-01-04T12:34:43.520Z,8.25
2023-01-04T12:37:32.757Z,8.28
2023-01-04T12:40:00.723Z,8.11
2023-01-04T12:42:28.708Z,7.95
2023-01-04T12:45:24.241Z,7.89
2023-01-04T12:48:12.941Z,7.83
2023-01-04T12:51:32.329Z,7.83
2023-01-04T12:54:02.921Z,7.79
2023-01-04T12:57:08.061Z,7.70
2023-01-04T12:59:38.826Z,7.79
2023-01-04T13:02:17.665Z,7.82
2023-01-04T13:04:47.731Z,7.73
2023-01-04T13:07:20.991Z,7.79
2023-01-04T13:09:57.739Z,7.71
2023-01-04T13:13:06.238Z,7.68
2023-01-04T13:15:46.896Z,7.78
2023-01-04T13:18:33.614Z,7.63
2023-01-04T13:21:04.359Z,7.56
2023-01-04T13:23:32.558Z,7.63
2023-01-04T13:26:34.275Z,7.62
2023-01-04T13:29:13.172Z,7.55
2023-01-04T13:31:47.455Z,7.56
2023-01-04T13:34:21.283Z,7.51
2023-01-04T13:37:09.150Z,7.48
2023-01-04T13:39:37.971Z,7.45
2023-01-04T13:42:08.118Z,7.39
2023-01-04T13:45:19.712Z,7.33
2023-01-04T13:47:51.996Z,7.35
2023-01-04T13:50:32.313Z,7.32
2023-01-04T13:53:07.674Z,7.25
2023-01-04T13:55:38.707Z,7.41
2023-01-04T13:58:08.503Z,7.44
2023-01-04T14:00:44.777Z,7.37
2023-01-04T14:03:31.721Z,7.44
2023-01-04T14:06:13.096Z,7.39
2023-01-04T14:08:45.968Z,7.49
2023-01-04T14:11:40.060Z,7.53
2023-01-04T14:14:20.399Z,7.61
2023-01-04T14:16:49.093Z,7.51
2023-01-04T14:19:42.835Z,7.61
2023-01-04T14:22:41.500Z,7.59
2023-01-04T14:25:56.525Z,7.67
2023-01-04T14:28:49.570Z,7.57
2023-01-04T14:31:31.755Z,7.52
2023-01-04T14:34:00.089Z,7.56
2023-01-04T14:36:30.522Z,7.53
2023-01-04T14:39:09.328Z,7.62
2023-01-04T14:41:39.239Z,7.58
2023-01-04T14:44:12.700Z,7.66
2023-01-04T14:46:41.926Z,7.71
2023-01-04T14:49:10.413Z,7.63
2023-01-04T14:51:42.351Z,7.77
2023-01-04T14:54:15.323Z,7.73
2023-01-04T14:56:45.995Z,7.78
2023-01-04T14:59:15.464Z,7.64
2023-01-04T15:01:43.488Z,7.61
2023-01-04T15:04:11.559Z,7.60
2023-01-04T15:06:49.089Z,7.32
2023-01-04T15:09:17.183Z,7.56
2023-01-04T15:11:45.136Z,7.68
2023-01-04T15:14:13.087Z,7.73
2023-01-04T15:16:42.549Z,7.85
2023-01-04T15:19:10.686Z,7.88
2023-01-04T15:21:41.600Z,7.90
2023-01-04T15:24:10.432Z,7.88
2023-01-04T15:26:39.061Z,7.95
2023-01-04T15:29:08.635Z,7.92
2023-01-04T15:31:39.926Z,7.98
2023-01-04T15:34:10.844Z,7.99
2023-01-04T15:36:41.286Z,8.05
2023-01-04T15:39:12.348Z,8.04
2023-01-04T15:42:00.218Z,8.06
2023-01-04T15:44:28.430Z,7.99
2023-01-04T15:46:59.421Z,8.03
2023-01-04T15:49:30.549Z,8.03
2023-01-04T15:51:58.888Z,8.07
2023-01-04T15:54:27.053Z,8.09
2023-01-04T15:56:55.168Z,8.00
2023-01-04T15:59:23.230Z,7.98
2023-01-04T16:01:51.316Z,8.11
2023-01-04T16:04:19.449Z,8.07
2023-01-04T16:06:48.797Z,8.15
2023-01-04T16:09:17.106Z,8.22
2023-01-04T16:11:58.938Z,8.23
2023-01-04T16:14:26.915Z,8.23
2023-01-04T16:16:54.935Z,8.11
2023-01-04T16:19:23.238Z,8.11
2023-01-04T16:21:52.567Z,8.12
2023-01-04T16:24:45.358Z,7.72
2023-01-04T16:27:09.732Z,7.94
2023-01-04T16:29:37.862Z,7.89
2023-01-04T16:32:06.289Z,7.72
2023-01-04T16:34:34.276Z,7.84
2023-01-04T16:37:03.851Z,7.85
2023-01-04T16:40:05.373Z,7.95
2023-01-04T16:42:20.205Z,7.92
2023-01-04T16:44:48.190Z,7.89
2023-01-04T16:47:16.272Z,7.99
2023-01-04T16:49:44.431Z,7.87
2023-01-04T16:52:14.659Z,7.90
2023-01-04T16:54:42.547Z,7.87
2023-01-04T16:57:10.474Z,7.82
2023-01-04T16:59:38.427Z,7.85
2023-01-04T17:02:06.467Z,7.67
2023-01-04T17:04:34.459Z,7.76
2023-01-04T17:07:02.399Z,7.81
2023-01-04T17:09:31.707Z,7.71
2023-01-04T17:15:07.884Z,7.79
2023-01-04T17:17:36.738Z,7.75
2023-01-04T17:20:06.478Z,7.58
2023-01-04T17:22:35.347Z,7.52
2023-01-04T17:25:05.810Z,7.66
2023-01-04T17:27:33.856Z,7.67
2023-01-04T17:30:01.893Z,7.61
2023-01-04T17:32:29.902Z,7.59
2023-01-04T17:34:58.860Z,7.58
2023-01-04T17:37:27.127Z,7.63
2023-01-04T17:39:55.127Z,7.54
2023-01-04T17:42:24.493Z,7.58
2023-01-04T17:44:52.811Z,7.58
2023-01-04T17:47:20.835Z,7.51
2023-01-04T17:49:49.015Z,7.42
2023-01-04T17:52:24.457Z,7.34
2023-01-04T17:54:56.889Z,7.30
2023-01-04T17:57:26.553Z,6.94
2023-01-04T17:59:54.507Z,7.04
2023-01-04T18:02:22.442Z,6.98
2023-01-04T18:04:50.487Z,6.87
2023-01-04T18:07:20.037Z,6.77
2023-01-04T18:09:47.978Z,6.66
2023-01-04T18:12:16.991Z,6.58
2023-01-04T18:14:46.330Z,6.47
2023-01-04T18:17:14.509Z,6.38
2023-01-04T18:19:46.241Z,6.23
2023-01-04T18:22:14.468Z,6.15
2023-01-04T18:24:42.452Z,6.08
2023-01-04T18:27:21.933Z,6.08
2023-01-04T18:29:52.447Z,6.00
2023-01-04T18:32:20.608Z,5.88
2023-01-04T18:34:48.596Z,5.77
2023-01-04T18:37:18.537Z,5.62
2023-01-04T18:39:47.327Z,5.58
2023-01-04T18:42:15.438Z,5.49
2023-01-04T18:44:48.437Z,5.41
2023-01-04T18:47:20.094Z,5.32
2023-01-04T18:49:48.390Z,5.27
2023-01-04T18:52:16.971Z,5.21
2023-01-04T18:54:45.287Z,5.12
2023-01-04T18:57:13.658Z,5.06
2023-01-04T18:59:41.854Z,4.98
2023-01-04T19:02:16.741Z,4.78
2023-01-04T19:04:46.705Z,4.77
2023-01-04T19:07:14.773Z,4.70
2023-01-04T19:09:43.604Z,4.64
2023-01-04T19:12:12.245Z,4.58
2023-01-04T19:14:41.858Z,4.47
2023-01-04T19:17:10.228Z,4.36
2023-01-04T19:19:38.669Z,4.37
2023-01-04T19:22:07.981Z,4.36
2023-01-04T19:24:35.922Z,4.36
2023-01-04T19:27:05.370Z,4.35
2023-01-04T19:29:36.148Z,4.36
2023-01-04T19:32:04.565Z,4.38
2023-01-04T19:34:32.533Z,4.48
2023-01-04T19:37:00.811Z,4.60
2023-01-04T19:39:30.391Z,4.64
2023-01-04T19:41:58.328Z,4.69
2023-01-04T19:44:26.260Z,4.70
2023-01-04T19:46:54.201Z,4.75
2023-01-04T19:49:22.135Z,4.85
2023-01-04T19:51:51.788Z,4.89
2023-01-04T19:54:25.179Z,4.73
2023-01-04T19:56:55.364Z,4.97
2023-01-04T19:59:23.696Z,5.26
2023-01-04T20:01:51.888Z,5.37
2023-01-04T20:04:20.183Z,5.44
2023-01-04T20:06:48.165Z,5.52
2023-01-04T20:09:18.475Z,5.66
2023-01-04T20:11:46.446Z,5.67
2023-01-04T20:14:15.771Z,5.74
2023-01-04T20:16:43.791Z,5.73
2023-01-04T20:19:11.771Z,5.77
2023-01-04T20:21:39.718Z,5.85
2023-01-04T20:24:08.285Z,5.96
2023-01-04T20:26:36.336Z,5.96
2023-01-04T20:29:05.028Z,5.81
2023-01-04T20:31:36.300Z,5.76
2023-01-04T20:34:06.037Z,5.95
2023-01-04T20:36:34.043Z,6.04
2023-01-04T20:39:03.648Z,6.20
2023-01-04T20:41:32.452Z,6.29
2023-01-04T20:44:00.056Z,6.39
2023-01-04T20:46:32.698Z,6.40
2023-01-04T20:49:02.758Z,6.41
2023-01-04T20:51:31.952Z,6.33
2023-01-04T20:54:00.814Z,6.51
2023-01-04T20:56:31.625Z,6.43
2023-01-04T20:58:59.606Z,6.57
2023-01-04T21:01:27.673Z,6.55
2023-01-04T21:03:55.723Z,6.59
2023-01-04T21:06:25.887Z,6.56
2023-01-04T21:08:55.129Z,6.60
2023-01-04T21:11:23.802Z,6.63
2023-01-04T21:13:52.851Z,6.58
2023-01-04T21:16:20.968Z,6.60
2023-01-04T21:18:48.975Z,6.65
2023-01-04T21:21:19.260Z,6.60
2023-01-04T21:23:56.065Z,6.64
2023-01-04T21:26:25.704Z,6.46
2023-01-04T21:28:53.642Z,6.60
2023-01-04T21:31:24.656Z,6.64
2023-01-04T21:33:53.337Z,6.53
2023-01-04T21:36:23.849Z,6.52
2023-01-04T21:38:54.812Z,6.49
2023-01-04T21:41:24.859Z,6.47
2023-01-04T21:43:54.078Z,6.63
2023-01-04T21:46:23.269Z,6.75
2023-01-04T21:48:54.688Z,6.73
2023-01-04T21:51:22.889Z,6.70
2023-01-04T21:53:51.006Z,6.67
2023-01-04T21:56:22.996Z,6.70
2023-01-04T21:58:51.517Z,6.74
2023-01-04T22:01:21.522Z,6.66
2023-01-04T22:03:49.821Z,6.65
2023-01-04T22:06:17.975Z,6.75
2023-01-04T22:08:46.619Z,6.80
2023-01-04T22:11:16.236Z,6.80
2023-01-04T22:13:46.034Z,6.69
2023-01-04T22:16:16.145Z,6.92
2023-01-04T22:18:47.275Z,6.74
2023-01-04T22:21:16.980Z,6.88
2023-01-04T22:23:44.988Z,6.71
2023-01-04T22:26:12.966Z,6.69
2023-01-04T22:28:41.884Z,6.81
2023-01-04T22:31:13.825Z,6.82
2023-01-04T22:33:42.781Z,6.90
2023-01-04T22:36:19.138Z,6.89
2023-01-04T22:38:50.536Z,6.84
2023-01-04T22:41:21.489Z,6.80
2023-01-04T22:43:54.676Z,6.67
2023-01-04T22:46:24.440Z,6.73
2023-01-04T22:48:52.557Z,6.84
2023-01-04T22:51:21.553Z,6.80
2023-01-04T22:53:50.131Z,6.62
2023-01-04T22:56:21.808Z,6.82
2023-01-04T22:58:54.145Z,6.89
2023-01-04T23:01:25.213Z,6.89
2023-01-04T23:03:53.483Z,6.84
2023-01-04T23:06:22.307Z,6.93
2023-01-04T23:08:55.892Z,6.76
2023-01-04T23:11:24.718Z,6.65
2023-01-04T23:13:52.927Z,6.71
2023-01-04T23:16:26.244Z,6.57
2023-01-04T23:18:57.378Z,6.66
2023-01-04T23:21:25.398Z,6.79
2023-01-04T23:23:53.362Z,6.89
2023-01-04T23:26:23.346Z,6.92
2023-01-04T23:28:51.643Z,6.86
2023-01-04T23:31:22.209Z,6.86
2023-01-04T23:33:54.107Z,6.77
2023-01-04T23:36:25.304Z,6.72
2023-01-04T23:38:55.349Z,6.57
2023-01-04T23:41:44.484Z,6.47
2023-01-04T23:44:19.034Z,6.33
2023-01-04T23:46:47.670Z,6.33
2023-01-04T23:49:15.656Z,6.25
2023-01-04T23:51:44.979Z,6.49
2023-01-04T23:54:12.958Z,6.52
2023-01-04T23:56:41.144Z,6.53
2023-01-04T23:59:09.257Z,6.59
